Time;durP1;ratioP1;P1;durP2;ratioP2;P2;SDS_P1;SDS_P2;PMS_P1;PMS_P2;Temp;Humidity;BMP_temperature;BMP_pressure;BME280_temperature;BME280_humidity;BME280_pressure;Samples;Min_cycle;Max_cycle;Signal;HPM_P1;HPM_P2
2022/09/18 00:00:38;;;;;;;6.72;1.80;;;;;;;13.73;70.84;101576.47;6304821;22;20403;-59
2022/09/18 00:03:03;;;;;;;5.68;1.92;;;;;;;13.74;70.98;101561.41;6304460;22;20017;-59
2022/09/18 00:05:29;;;;;;;4.43;1.63;;;;;;;13.77;70.58;101562.00;6306396;22;20411;-59
2022/09/18 00:07:54;;;;;;;6.53;1.70;;;;;;;13.71;70.82;101567.50;6306523;22;20035;-59
2022/09/18 00:10:19;;;;;;;6.13;2.08;;;;;;;13.71;71.40;101572.25;6304574;22;20419;-59
2022/09/18 00:12:44;;;;;;;8.55;1.88;;;;;;;13.70;71.10;101571.41;6305880;22;20007;-59
2022/09/18 00:15:10;;;;;;;5.07;1.90;;;;;;;13.77;70.83;101574.00;6306440;22;20323;-59
2022/09/18 00:17:35;;;;;;;5.78;1.85;;;;;;;13.69;71.38;101563.28;6303912;22;20011;-59
2022/09/18 00:20:00;;;;;;;6.15;2.15;;;;;;;13.72;71.38;101560.84;6305924;22;20026;-59
2022/09/18 00:22:26;;;;;;;4.65;1.63;;;;;;;13.72;71.30;101573.94;6306367;22;20419;-59
2022/09/18 00:24:51;;;;;;;5.72;1.88;;;;;;;13.66;71.41;101561.00;6302612;22;20007;-59
2022/09/18 00:27:16;;;;;;;4.82;1.85;;;;;;;13.70;71.44;101562.19;6305784;22;19999;-59
2022/09/18 00:29:43;;;;;;;5.60;1.70;;;;;;;13.64;71.10;101561.28;6306006;22;20373;-59
2022/09/18 00:32:08;;;;;;;9.73;2.38;;;;;;;13.65;71.43;101560.16;6302148;22;20053;-59
2022/09/18 00:34:34;;;;;;;4.30;1.73;;;;;;;13.68;70.92;101561.63;6305208;22;20412;-59
2022/09/18 00:36:59;;;;;;;3.72;1.77;;;;;;;13.66;71.13;101552.66;6303902;22;20015;-59
2022/09/18 00:39:24;;;;;;;7.40;1.83;;;;;;;13.67;71.56;101545.94;6303720;22;20340;-59
2022/09/18 00:41:50;;;;;;;7.57;1.90;;;;;;;13.58;71.11;101553.94;6303597;22;20121;-59
2022/09/18 00:44:35;;;;;;;5.18;1.58;;;;;;;13.69;71.20;101566.09;6304060;22;20328;-59
2022/09/18 00:47:11;;;;;;;4.97;1.65;;;;;;;13.65;71.28;101562.97;6304026;22;20011;-59
2022/09/18 00:49:41;;;;;;;5.38;1.85;;;;;;;13.64;71.62;101560.44;6303711;22;20007;-59
2022/09/18 00:52:07;;;;;;;4.10;1.50;;;;;;;13.61;71.50;101552.56;6303159;22;20014;-59
2022/09/18 00:54:37;;;;;;;6.63;2.05;;;;;;;13.61;71.54;101563.75;6304301;22;19995;-59
2022/09/18 00:57:06;;;;;;;5.35;2.30;;;;;;;13.60;71.93;101551.75;6304740;22;20316;-59
2022/09/18 00:59:35;;;;;;;5.90;2.67;;;;;;;13.58;71.84;101555.88;6302669;22;20007;-59
2022/09/18 01:02:02;;;;;;;4.97;1.80;;;;;;;13.58;71.67;101551.13;6303907;22;20031;-59
2022/09/18 01:04:28;;;;;;;5.85;1.85;;;;;;;13.57;72.07;101560.63;6303841;22;20049;-59
2022/09/18 01:07:17;;;;;;;6.40;2.03;;;;;;;13.59;71.57;101565.91;6302386;22;20823;-59
2022/09/18 01:09:53;;;;;;;4.68;1.73;;;;;;;13.60;71.52;101559.25;6303840;22;20049;-59
2022/09/18 01:12:24;;;;;;;6.40;1.52;;;;;;;13.58;71.83;101558.66;6304148;22;20034;-59
2022/09/18 01:15:03;;;;;;;4.70;1.50;;;;;;;13.61;71.84;101578.53;6303157;22;20038;-59
2022/09/18 01:18:07;;;;;;;5.80;2.10;;;;;;;13.67;71.49;101573.84;6304378;22;20014;-59
2022/09/18 01:21:03;;;;;;;4.95;2.05;;;;;;;13.67;71.73;101571.06;6299416;22;20110;-59
2022/09/18 01:23:58;;;;;;;5.18;2.00;;;;;;;13.66;71.65;101567.44;6303348;22;20003;-59
2022/09/18 01:26:53;;;;;;;6.70;2.10;;;;;;;13.63;71.65;101575.47;6303430;22;20000;-59
2022/09/18 01:29:46;;;;;;;7.93;1.95;;;;;;;13.60;71.89;101570.44;6304669;22;20008;-59
2022/09/18 01:32:14;;;;;;;;;;;;;;;13.78;70.72;101566.47;6260539;22;1028352;-59
2022/09/18 01:34:46;;;;;;;6.13;1.75;;;;;;;13.59;71.86;101563.97;6305100;22;19915;-59
2022/09/18 01:37:34;;;;;;;3.42;1.70;;;;;;;13.65;71.57;101556.53;6303391;22;20094;-59
2022/09/18 01:40:09;;;;;;;5.75;1.75;;;;;;;13.57;72.16;101555.03;6304833;22;20007;-59
2022/09/18 01:42:36;;;;;;;4.43;1.85;;;;;;;13.56;72.24;101561.72;6304137;22;20487;-59
2022/09/18 01:45:08;;;;;;;4.43;2.03;;;;;;;13.53;72.57;101561.38;6304914;22;20003;-59
2022/09/18 01:47:49;;;;;;;5.85;1.70;;;;;;;13.56;72.00;101556.13;6304927;22;20027;-59
2022/09/18 01:50:16;;;;;;;5.10;1.95;;;;;;;13.48;72.63;101554.63;6303766;22;20047;-59
2022/09/18 01:52:52;;;;;;;5.80;1.80;;;;;;;13.54;72.45;101551.91;6305668;22;20007;-58
2022/09/18 01:55:22;;;;;;;5.13;2.15;;;;;;;13.51;72.62;101551.31;6303168;22;20039;-58
2022/09/18 01:58:08;;;;;;;7.65;2.03;;;;;;;13.56;72.23;101542.19;6304710;22;20380;-59
2022/09/18 02:00:38;;;;;;;9.15;2.08;;;;;;;13.49;72.58;101545.16;6305220;22;20007;-59
2022/09/18 02:03:10;;;;;;;4.03;2.45;;;;;;;13.50;72.72;101538.47;6304304;22;20008;-58
2022/09/18 02:05:44;;;;;;;5.55;2.00;;;;;;;13.51;72.33;101534.56;6304757;22;20041;-59
2022/09/18 02:08:23;;;;;;;5.32;2.22;;;;;;;13.53;72.36;101542.69;6303544;22;20010;-59
2022/09/18 02:10:57;;;;;;;4.45;2.13;;;;;;;13.50;72.83;101546.84;6303615;22;20003;-59
2022/09/18 02:13:31;;;;;;;6.72;2.20;;;;;;;13.49;72.74;101547.94;6305145;22;20065;-59
2022/09/18 02:16:01;;;;;;;6.28;2.03;;;;;;;13.46;73.25;101545.66;6305465;22;20003;-59
2022/09/18 02:18:32;;;;;;;6.50;2.45;;;;;;;13.49;73.22;101541.53;6302011;22;20385;-59
2022/09/18 02:20:59;;;;;;;6.97;2.40;;;;;;;13.46;73.07;101544.81;6306368;22;20041;-59
2022/09/18 02:23:27;;;;;;;6.57;2.38;;;;;;;13.46;73.52;101531.72;6305987;22;20003;-59
2022/09/18 02:25:57;;;;;;;5.78;2.05;;;;;;;13.48;73.09;101534.28;6307414;22;20074;-59
2022/09/18 02:28:24;;;;;;;10.30;2.22;;;;;;;13.42;73.46;101529.69;6306430;22;20011;-58
2022/09/18 02:30:50;;;;;;;7.22;2.17;;;;;;;13.44;73.02;101530.28;6304989;22;20014;-59
2022/09/18 02:33:30;;;;;;;7.00;2.00;;;;;;;13.48;73.22;101523.94;6305777;22;20011;-58
2022/09/18 02:36:17;;;;;;;5.85;2.03;;;;;;;13.47;73.12;101521.41;6306681;22;20324;-59
2022/09/18 02:38:57;;;;;;;6.32;2.30;;;;;;;13.43;73.27;101514.66;6305631;22;20007;-58
2022/09/18 02:41:44;;;;;;;5.28;2.22;;;;;;;13.45;72.96;101532.81;6306230;22;20007;-59
2022/09/18 02:44:24;;;;;;;6.88;1.70;;;;;;;13.47;72.86;101525.03;6305260;22;20015;-59
2022/09/18 02:46:59;;;;;;;6.47;1.70;;;;;;;13.46;73.06;101522.50;6305159;22;20007;-59
2022/09/18 02:49:24;;;;;;;10.15;2.40;;;;;;;13.48;73.37;101529.53;6306473;22;20011;-59
2022/09/18 02:52:25;;;;;;;4.95;2.10;;;;;;;13.48;73.29;101528.69;6304569;22;20007;-59
2022/09/18 02:55:03;;;;;;;6.13;2.03;;;;;;;13.48;73.76;101523.13;6301251;22;20038;-59
2022/09/18 02:57:37;;;;;;;4.55;1.55;;;;;;;13.49;73.26;101519.22;6306845;22;20011;-59
2022/09/18 03:00:05;;;;;;;6.15;1.95;;;;;;;13.46;73.79;101512.19;6305834;22;20152;-59
2022/09/18 03:02:30;;;;;;;4.72;1.70;;;;;;;13.46;73.53;101517.78;6305839;22;20078;-59
2022/09/18 03:04:55;;;;;;;3.67;1.83;;;;;;;13.46;73.44;101514.97;6305897;22;20026;-59
2022/09/18 03:07:21;;;;;;;5.70;1.63;;;;;;;13.41;73.62;101520.50;6306007;22;20408;-59
2022/09/18 03:09:46;;;;;;;7.88;2.17;;;;;;;13.42;73.96;101522.19;6305696;22;20010;-59
2022/09/18 03:12:11;;;;;;;6.50;2.00;;;;;;;13.44;73.82;101516.31;6306424;22;20008;-59
2022/09/18 03:14:37;;;;;;;5.55;1.75;;;;;;;13.41;73.95;101503.75;6304006;22;20370;-58
2022/09/18 03:17:03;;;;;;;6.45;1.90;;;;;;;13.45;74.18;101513.31;6304495;22;20473;-59
2022/09/18 03:19:28;;;;;;;5.50;1.60;;;;;;;13.46;74.01;101511.34;6305906;22;20031;-59
2022/09/18 03:21:53;;;;;;;5.28;1.70;;;;;;;13.46;73.99;101508.56;6304890;22;20003;-59
2022/09/18 03:24:19;;;;;;;6.10;1.73;;;;;;;13.47;73.67;101507.47;6305787;22;20003;-59
2022/09/18 03:26:45;;;;;;;5.95;1.70;;;;;;;13.47;74.25;101511.09;6305328;22;19999;-60
2022/09/18 03:29:11;;;;;;;7.78;1.88;;;;;;;13.45;74.33;101513.31;6306625;22;19999;-60
2022/09/18 03:31:37;;;;;;;6.97;1.65;;;;;;;13.47;74.41;101505.50;6304632;22;20011;-58
2022/09/18 03:34:03;;;;;;;8.20;2.00;;;;;;;13.50;74.10;101507.78;6305817;22;20013;-58
2022/09/18 03:36:28;;;;;;;7.80;1.85;;;;;;;13.44;74.08;101503.25;6305920;22;20030;-59
2022/09/18 03:38:53;;;;;;;8.57;2.17;;;;;;;13.44;74.11;101500.47;6306391;22;20060;-58
2022/09/18 03:41:18;;;;;;;5.07;1.48;;;;;;;13.49;74.04;101500.53;6305030;22;20323;-57
2022/09/18 03:43:44;;;;;;;5.38;1.63;;;;;;;13.44;73.73;101500.47;6306177;22;20128;-57
2022/09/18 03:46:09;;;;;;;6.65;1.48;;;;;;;13.42;74.04;101501.81;6306253;22;20461;-58
2022/09/18 03:48:34;;;;;;;6.55;1.30;;;;;;;13.43;74.25;101495.97;6303783;22;20064;-58
2022/09/18 03:51:00;;;;;;;6.07;1.33;;;;;;;13.45;74.17;101501.31;6305263;22;20011;-58
2022/09/18 03:53:25;;;;;;;3.08;1.20;;;;;;;13.44;73.86;101491.22;6305521;22;20027;-58
2022/09/18 03:55:51;;;;;;;4.63;1.05;;;;;;;13.42;73.41;101488.72;6303621;22;20003;-58
2022/09/18 03:58:16;;;;;;;6.85;1.58;;;;;;;13.39;73.85;101486.44;6305854;22;20011;-58
2022/09/18 04:00:41;;;;;;;5.15;1.20;;;;;;;13.41;73.45;101488.97;6304900;22;20022;-58
2022/09/18 04:03:07;;;;;;;3.47;1.30;;;;;;;13.43;73.27;101481.19;6304555;22;20014;-59
2022/09/18 04:05:32;;;;;;;7.38;1.50;;;;;;;13.40;73.73;101482.56;6305297;22;20050;-59
2022/09/18 04:07:58;;;;;;;8.57;1.50;;;;;;;13.40;73.53;101476.13;6304909;22;20003;-59
2022/09/18 04:10:25;;;;;;;4.88;1.10;;;;;;;13.37;73.49;101471.91;6304694;22;20082;-59
2022/09/18 04:12:51;;;;;;;5.15;1.33;;;;;;;13.38;72.93;101478.34;6304566;22;20415;-58
2022/09/18 04:15:17;;;;;;;4.80;1.00;;;;;;;13.36;73.24;101475.81;6304174;22;20003;-59
2022/09/18 04:17:43;;;;;;;4.57;1.20;;;;;;;13.33;73.38;101481.06;6302762;22;20038;-59
2022/09/18 04:20:09;;;;;;;5.15;0.90;;;;;;;13.32;72.94;101482.13;6305507;22;20006;-59
2022/09/18 04:22:35;;;;;;;6.68;1.30;;;;;;;13.33;73.26;101481.06;6305542;22;20073;-59
2022/09/18 04:25:00;;;;;;;3.80;1.17;;;;;;;13.31;73.28;101480.44;6303997;22;20004;-59
2022/09/18 04:27:26;;;;;;;5.38;0.98;;;;;;;13.31;73.55;101484.09;6305462;22;20015;-59
2022/09/18 04:29:51;;;;;;;5.88;1.25;;;;;;;13.33;73.13;101483.84;6303151;22;20004;-59
2022/09/18 04:32:16;;;;;;;3.40;0.95;;;;;;;13.31;73.59;101481.28;6303163;22;20034;-59
2022/09/18 04:34:42;;;;;;;3.22;0.90;;;;;;;13.29;73.71;101480.72;6305947;22;20015;-59
2022/09/18 04:37:08;;;;;;;4.40;1.20;;;;;;;13.31;73.69;101484.09;6303770;22;20008;-59
2022/09/18 04:39:34;;;;;;;5.10;1.27;;;;;;;13.28;73.69;101495.75;6304678;22;20436;-59
2022/09/18 04:41:59;;;;;;;4.30;1.10;;;;;;;13.27;73.25;101494.06;6304874;22;20007;-59
2022/09/18 04:44:25;;;;;;;2.85;1.23;;;;;;;13.29;73.33;101491.88;6304423;22;20079;-59
2022/09/18 04:46:50;;;;;;;5.65;1.77;;;;;;;13.30;73.55;101490.75;6304175;22;20431;-58
2022/09/18 04:49:15;;;;;;;7.07;1.60;;;;;;;13.25;73.44;101490.69;6304651;22;20007;-59
2022/09/18 04:51:41;;;;;;;7.43;1.73;;;;;;;13.28;73.35;101487.38;6303884;22;20011;-59
2022/09/18 04:54:06;;;;;;;6.43;1.80;;;;;;;13.27;73.16;101499.63;6305630;22;20420;-59
2022/09/18 04:56:31;;;;;;;10.35;1.88;;;;;;;13.28;73.37;101490.16;6302840;22;20074;-60
2022/09/18 04:58:58;;;;;;;6.22;1.10;;;;;;;13.27;73.31;101489.31;6304207;22;20419;-60
2022/09/18 05:01:24;;;;;;;6.85;1.23;;;;;;;13.23;73.51;101490.09;6302491;22;20003;-60
2022/09/18 05:03:49;;;;;;;5.25;1.35;;;;;;;13.20;73.66;101488.66;6303230;22;20305;-60
2022/09/18 05:06:14;;;;;;;3.78;1.10;;;;;;;13.21;73.08;101481.13;6304203;22;19999;-58
2022/09/18 05:08:39;;;;;;;6.97;1.08;;;;;;;13.17;73.49;101482.75;6305542;22;20038;-59
2022/09/18 05:11:05;;;;;;;6.05;1.10;;;;;;;13.21;73.21;101472.75;6304190;22;20003;-60
2022/09/18 05:13:30;;;;;;;6.18;1.30;;;;;;;13.22;73.51;101463.28;6304526;22;20102;-61
2022/09/18 05:15:56;;;;;;;4.50;1.10;;;;;;;13.21;73.21;101464.41;6305492;22;20015;-58
2022/09/18 05:18:22;;;;;;;4.97;1.02;;;;;;;13.23;73.46;101477.00;6305419;22;20011;-59
2022/09/18 05:20:48;;;;;;;6.30;1.15;;;;;;;13.27;73.41;101486.53;6303435;22;20007;-60
2022/09/18 05:23:14;;;;;;;5.65;1.20;;;;;;;13.24;73.17;101486.19;6305092;22;20038;-60
2022/09/18 05:25:40;;;;;;;6.80;1.38;;;;;;;13.21;72.91;101493.13;6304874;22;20037;-60
2022/09/18 05:28:05;;;;;;;6.20;1.20;;;;;;;13.23;73.55;101495.66;6304592;22;20003;-60
2022/09/18 05:30:31;;;;;;;3.13;1.25;;;;;;;13.24;73.18;101483.41;6304418;22;20004;-60
2022/09/18 05:32:58;;;;;;;4.68;1.08;;;;;;;13.23;73.44;101487.31;6304525;22;20090;-59
2022/09/18 05:35:25;;;;;;;5.93;1.10;;;;;;;13.21;73.67;101504.28;6305822;22;20104;-59
2022/09/18 05:37:52;;;;;;;8.27;1.60;;;;;;;13.19;73.39;101506.44;6304730;22;20003;-59
2022/09/18 05:40:25;;;;;;;6.13;1.05;;;;;;;13.26;73.47;101506.31;6303598;22;20053;-59
2022/09/18 05:42:53;;;;;;;6.30;1.13;;;;;;;13.24;73.61;101509.38;6304792;22;20012;-59
2022/09/18 05:45:20;;;;;;;7.72;1.52;;;;;;;13.18;73.64;101490.00;6305051;22;20003;-59
2022/09/18 05:47:54;;;;;;;4.72;1.23;;;;;;;13.21;73.68;101492.28;6304436;22;20011;-59
2022/09/18 05:50:20;;;;;;;7.68;1.33;;;;;;;13.18;73.39;101487.22;6304891;22;20137;-59
2022/09/18 05:52:45;;;;;;;3.83;1.15;;;;;;;13.21;73.83;101487.53;6305244;22;20407;-59
2022/09/18 05:55:10;;;;;;;5.60;1.25;;;;;;;13.25;73.76;101499.06;6304769;22;20053;-60
2022/09/18 05:57:36;;;;;;;3.67;0.82;;;;;;;13.26;73.69;101489.59;6307095;22;20323;-59
2022/09/18 06:00:01;;;;;;;6.10;1.20;;;;;;;13.21;74.37;101492.28;6306327;22;19999;-59
2022/09/18 06:02:27;;;;;;;5.25;1.60;;;;;;;13.27;73.91;101494.06;6305396;22;19999;-59
2022/09/18 06:04:52;;;;;;;5.70;1.40;;;;;;;13.26;74.24;101484.00;6304950;22;20003;-59
2022/09/18 06:07:17;;;;;;;5.05;1.40;;;;;;;13.23;74.29;101490.94;6305887;22;19999;-59
2022/09/18 06:09:43;;;;;;;8.57;1.50;;;;;;;13.20;74.19;101485.84;6306100;22;19999;-59
2022/09/18 06:12:08;;;;;;;6.35;1.20;;;;;;;13.26;73.87;101478.44;6306427;22;20419;-60
2022/09/18 06:14:33;;;;;;;4.35;1.30;;;;;;;13.24;74.14;101472.25;6307318;22;20015;-59
2022/09/18 06:16:59;;;;;;;5.82;1.35;;;;;;;13.24;74.35;101486.19;6305648;22;20094;-59
2022/09/18 06:19:24;;;;;;;6.20;1.95;;;;;;;13.29;74.55;101486.28;6306077;22;19999;-59
2022/09/18 06:21:50;;;;;;;4.63;1.67;;;;;;;13.32;74.24;101480.19;6306108;22;20074;-59
2022/09/18 06:24:15;;;;;;;3.42;1.50;;;;;;;13.33;74.65;101478.28;6305798;22;20388;-59
2022/09/18 06:26:40;;;;;;;5.47;1.67;;;;;;;13.36;74.37;101483.31;6307395;22;20522;-59
2022/09/18 06:29:05;;;;;;;5.22;1.63;;;;;;;13.33;74.74;101481.06;6306509;22;20007;-59
2022/09/18 06:31:31;;;;;;;3.88;1.75;;;;;;;13.36;74.65;101484.19;6305736;22;20007;-61
2022/09/18 06:33:56;;;;;;;5.53;1.50;;;;;;;13.42;74.53;101479.50;6306984;22;20019;-60
2022/09/18 06:36:21;;;;;;;6.63;1.55;;;;;;;13.43;74.47;101482.03;6305136;22;20332;-60
2022/09/18 06:38:50;;;;;;;5.32;1.35;;;;;;;13.44;74.48;101475.38;6306441;22;20011;-60
2022/09/18 06:41:15;;;;;;;7.03;1.85;;;;;;;13.45;74.10;101474.25;6306256;22;20415;-60
2022/09/18 06:43:40;;;;;;;7.90;1.85;;;;;;;13.45;74.62;101467.84;6305565;22;20061;-60
2022/09/18 06:46:07;;;;;;;7.88;1.70;;;;;;;13.46;74.16;101475.09;6306780;22;20311;-61
2022/09/18 06:48:32;;;;;;;4.78;1.52;;;;;;;13.43;74.39;101478.41;6305923;22;20007;-60
2022/09/18 06:50:58;;;;;;;8.63;1.50;;;;;;;13.48;74.10;101467.34;6305406;22;20026;-60
2022/09/18 06:53:24;;;;;;;6.00;2.00;;;;;;;13.46;74.52;101475.94;6306767;22;20009;-60
2022/09/18 06:55:50;;;;;;;6.95;1.90;;;;;;;13.42;74.86;101474.78;6307171;22;20007;-60
2022/09/18 06:58:17;;;;;;;4.05;1.50;;;;;;;13.44;74.57;101474.50;6305282;22;20011;-60
2022/09/18 07:00:43;;;;;;;6.68;1.90;;;;;;;13.46;74.63;101481.53;6306836;22;20008;-60
2022/09/18 07:03:09;;;;;;;9.57;2.00;;;;;;;13.45;75.19;101474.25;6306768;22;20004;-60
2022/09/18 07:05:39;;;;;;;6.10;1.98;;;;;;;13.49;74.90;101469.84;6304521;22;20018;-60
2022/09/18 07:08:05;;;;;;;9.10;2.30;;;;;;;13.51;75.10;101476.00;6304795;22;20331;-60
2022/09/18 07:10:30;;;;;;;9.80;2.40;;;;;;;13.55;74.99;101472.72;6306781;22;19999;-60
2022/09/18 07:12:57;;;;;;;8.95;2.05;;;;;;;13.56;74.75;101474.38;6305199;22;20068;-60
2022/09/18 07:15:23;;;;;;;3.45;1.80;;;;;;;13.59;75.12;101471.94;6306436;22;20074;-60
2022/09/18 07:17:48;;;;;;;5.47;1.60;;;;;;;13.58;75.22;101472.19;6306107;22;20387;-60
2022/09/18 07:20:13;;;;;;;6.30;1.77;;;;;;;13.58;74.73;101466.63;6305906;22;20010;-61
2022/09/18 07:22:39;;;;;;;8.77;1.90;;;;;;;13.60;75.29;101470.00;6304210;22;20022;-60
2022/09/18 07:25:06;;;;;;;11.73;1.95;;;;;;;13.64;75.15;101466.44;6305982;22;20323;-61
2022/09/18 07:27:31;;;;;;;8.95;1.55;;;;;;;13.64;75.06;101458.06;6304065;22;20014;-60
2022/09/18 07:29:57;;;;;;;5.13;1.75;;;;;;;13.66;75.27;101455.00;6305864;22;20011;-64
2022/09/18 07:32:23;;;;;;;7.72;1.80;;;;;;;13.66;75.38;101453.06;6303226;22;20086;-60
2022/09/18 07:34:48;;;;;;;8.00;2.03;;;;;;;13.67;74.95;101451.94;6304746;22;20153;-60
2022/09/18 07:37:15;;;;;;;6.40;2.03;;;;;;;13.68;75.35;101455.59;6303085;22;20031;-60
2022/09/18 07:39:41;;;;;;;11.68;2.20;;;;;;;13.67;75.00;101454.75;6304526;22;20007;-61
2022/09/18 07:42:07;;;;;;;9.55;1.92;;;;;;;13.68;75.26;101462.03;6305012;22;20007;-60
2022/09/18 07:44:33;;;;;;;5.10;1.50;;;;;;;13.70;74.95;101465.38;6306767;22;20014;-60
2022/09/18 07:46:59;;;;;;;5.22;1.65;;;;;;;13.68;75.56;101466.75;6304271;22;20027;-60
2022/09/18 07:49:24;;;;;;;11.13;1.75;;;;;;;13.71;75.67;101460.66;6304943;22;20030;-60
2022/09/18 07:51:50;;;;;;;9.77;1.50;;;;;;;13.74;75.57;101460.97;6305327;22;20007;-60
2022/09/18 07:54:15;;;;;;;6.57;1.67;;;;;;;13.77;75.32;101448.47;6304406;22;20048;-60
2022/09/18 07:56:40;;;;;;;8.65;1.80;;;;;;;13.86;75.14;101457.22;6305063;22;20374;-60
2022/09/18 07:59:06;;;;;;;6.45;1.50;;;;;;;13.92;74.96;101450.59;6303316;22;20088;-60
2022/09/18 08:01:33;;;;;;;7.97;1.90;;;;;;;13.89;75.40;101459.47;6304300;22;19999;-60
2022/09/18 08:04:00;;;;;;;7.03;2.13;;;;;;;13.97;75.24;101448.69;6305439;22;20078;-60
2022/09/18 08:06:25;;;;;;;5.43;1.80;;;;;;;14.04;74.77;101447.66;6305620;22;20070;-60
2022/09/18 08:08:51;;;;;;;4.35;2.50;;;;;;;14.11;74.64;101443.56;6303147;22;20084;-60
2022/09/18 08:11:16;;;;;;;8.10;2.20;;;;;;;14.20;74.99;101441.13;6303375;22;20018;-60
2022/09/18 08:13:42;;;;;;;6.25;2.53;;;;;;;14.27;74.96;101447.38;6305881;22;19999;-58
2022/09/18 08:16:08;;;;;;;7.88;2.15;;;;;;;14.29;74.70;101430.34;6304221;22;20003;-59
2022/09/18 08:18:35;;;;;;;6.70;2.30;;;;;;;14.22;74.75;101445.34;6304205;22;20035;-60
2022/09/18 08:21:00;;;;;;;4.50;1.35;;;;;;;14.24;74.51;101447.88;6303976;22;20035;-59
2022/09/18 08:23:25;;;;;;;5.57;1.60;;;;;;;14.20;74.17;101455.94;6303843;22;20010;-58
2022/09/18 08:25:51;;;;;;;4.82;1.30;;;;;;;14.19;74.13;101448.69;6304666;22;19999;-59
2022/09/18 08:28:17;;;;;;;5.65;1.50;;;;;;;14.18;74.27;101454.50;6305629;22;20003;-58
2022/09/18 08:30:42;;;;;;;6.65;2.38;;;;;;;14.17;74.37;101456.47;6303304;22;20007;-58
2022/09/18 08:33:09;;;;;;;6.93;3.50;;;;;;;14.10;74.32;101453.03;6305507;22;20461;-58
2022/09/18 08:35:37;;;;;;;6.13;2.53;;;;;;;14.06;74.41;101463.03;6305479;22;20011;-58
2022/09/18 08:38:03;;;;;;;5.18;2.00;;;;;;;14.05;74.58;101466.94;6304396;22;20305;-58
2022/09/18 08:41:02;;;;;;;4.78;1.77;;;;;;;14.07;74.44;101469.44;6304857;22;20003;-59
2022/09/18 08:43:46;;;;;;;3.20;1.70;;;;;;;14.02;74.58;101477.78;6304357;22;20003;-59
2022/09/18 08:46:18;;;;;;;5.80;2.00;;;;;;;13.99;75.01;101471.63;6305325;22;20035;-58
2022/09/18 08:48:48;;;;;;;;;;;;;;;14.15;73.89;101460.63;6305332;22;20003;-60
2022/09/18 08:51:41;;;;;;;6.90;2.00;;;;;;;14.07;74.33;101453.56;6301369;22;19940;-60
2022/09/18 08:54:26;;;;;;;5.25;2.20;;;;;;;14.09;74.66;101464.47;6304458;22;20004;-59
2022/09/18 08:56:55;;;;;;;7.18;1.80;;;;;;;14.07;74.40;101458.28;6304246;22;20026;-58
2022/09/18 08:59:36;;;;;;;10.13;2.38;;;;;;;14.10;75.16;101464.19;6303059;22;20011;-59
2022/09/18 09:02:07;;;;;;;4.47;1.65;;;;;;;14.10;74.50;101463.34;6305755;22;20374;-59
2022/09/18 09:04:34;;;;;;;5.15;2.20;;;;;;;14.08;74.08;101466.41;6305281;22;20062;-59
2022/09/18 09:07:20;;;;;;;6.15;2.30;;;;;;;14.11;74.42;101465.91;6304753;22;20009;-59
2022/09/18 09:10:18;;;;;;;4.57;2.17;;;;;;;14.16;74.88;101462.31;6305541;22;20011;-59
2022/09/18 09:12:47;;;;;;;5.00;2.03;;;;;;;14.13;74.97;101460.03;6300387;22;20454;-58
2022/09/18 09:15:30;;;;;;;3.80;1.60;;;;;;;14.16;74.79;101468.75;6303012;22;20011;-59
2022/09/18 09:18:14;;;;;;;5.75;1.80;;;;;;;14.13;73.99;101463.66;6305839;22;20012;-59
2022/09/18 09:20:56;;;;;;;5.53;2.30;;;;;;;14.19;74.11;101459.00;6305868;22;20006;-59
2022/09/18 09:23:21;;;;;;;;;;;;;;;14.30;73.53;101459.94;6305923;22;20003;-60
2022/09/18 09:26:10;;;;;;;6.00;2.00;;;;;;;14.18;74.23;101466.50;6305055;22;19907;-60
2022/09/18 09:28:54;;;;;;;7.53;2.30;;;;;;;14.18;74.64;101474.88;6306297;22;20249;-59
2022/09/18 09:31:24;;;;;;;6.45;2.63;;;;;;;14.16;75.10;101467.91;6306536;22;20038;-59
2022/09/18 09:34:08;;;;;;;5.65;2.40;;;;;;;14.13;75.59;101458.09;6301687;22;20043;-59
2022/09/18 09:36:36;;;;;;;5.18;2.10;;;;;;;14.12;75.42;101469.53;6307457;22;20005;-59
2022/09/18 09:39:21;;;;;;;5.28;2.28;;;;;;;14.18;75.39;101466.50;6307471;22;20011;-59
2022/09/18 09:42:10;;;;;;;4.05;1.80;;;;;;;14.12;75.38;101467.56;6308019;22;19999;-60
2022/09/18 09:45:13;;;;;;;5.05;1.80;;;;;;;14.16;75.13;101477.13;6307905;22;20007;-59
2022/09/18 09:47:44;;;;;;;2.75;1.60;;;;;;;14.15;75.67;101475.44;6305519;22;20010;-59
2022/09/18 09:50:29;;;;;;;10.65;1.70;;;;;;;14.18;75.60;101468.47;6307495;22;20003;-59
2022/09/18 09:52:59;;;;;;;5.55;1.90;;;;;;;14.18;76.74;101466.50;6307686;22;20031;-60
2022/09/18 09:55:47;;;;;;;4.70;1.70;;;;;;;14.28;76.72;101456.56;6305629;22;20071;-60
2022/09/18 09:58:12;;;;;;;42.85;4.00;;;;;;;14.24;76.93;101448.72;6307658;22;20369;-60
2022/09/18 10:01:04;;;;;;;89.15;6.75;;;;;;;14.32;76.54;101450.19;6305464;22;20078;-59
2022/09/18 10:03:51;;;;;;;627.80;52.80;;;;;;;14.36;76.76;101445.78;6290730;22;20064;-57
2022/09/18 10:06:34;;;;;;;85.50;7.13;;;;;;;14.39;76.19;101428.50;6307068;22;20094;-58
2022/09/18 10:09:20;;;;;;;28.77;3.20;;;;;;;14.43;75.92;101426.84;6305394;22;20035;-57
2022/09/18 10:11:57;;;;;;;7.20;2.40;;;;;;;14.38;76.28;101428.75;6307558;22;20026;-60
2022/09/18 10:14:26;;;;;;;5.97;1.98;;;;;;;14.38;75.91;101431.53;6305400;22;20102;-58
2022/09/18 10:16:55;;;;;;;5.32;2.10;;;;;;;14.41;75.95;101431.84;6304908;22;20712;-58
2022/09/18 10:19:21;;;;;;;3.80;2.40;;;;;;;14.43;76.45;101435.22;6307301;22;20015;-58
2022/09/18 10:21:51;;;;;;;8.57;2.45;;;;;;;14.45;76.46;101430.22;6305832;22;20007;-59
2022/09/18 10:24:29;;;;;;;5.63;2.10;;;;;;;14.45;76.41;101430.22;6305583;22;20003;-59
2022/09/18 10:26:57;;;;;;;6.55;1.98;;;;;;;14.49;76.67;101431.41;6305717;22;20011;-58
2022/09/18 10:29:22;;;;;;;7.03;2.40;;;;;;;14.51;76.79;101433.94;6305280;22;20027;-58
2022/09/18 10:31:54;;;;;;;4.20;1.63;;;;;;;14.55;75.61;101439.84;6306406;22;20558;-59
2022/09/18 10:34:47;;;;;;;5.40;1.67;;;;;;;14.59;75.68;101443.78;6305010;22;20030;-58
2022/09/18 10:37:14;;;;;;;6.25;2.17;;;;;;;14.58;75.80;101433.69;6306541;22;20386;-59
2022/09/18 10:39:50;;;;;;;5.38;2.10;;;;;;;14.59;76.06;101435.41;6307092;22;20003;-58
2022/09/18 10:42:19;;;;;;;6.00;1.60;;;;;;;14.53;74.24;101440.09;6305665;22;20080;-59
2022/09/18 10:44:53;;;;;;;7.65;1.60;;;;;;;14.54;73.65;101433.41;6306017;22;20043;-59
2022/09/18 10:47:22;;;;;;;4.53;1.65;;;;;;;14.54;73.10;101432.53;6307355;22;20003;-59
2022/09/18 10:50:04;;;;;;;6.95;2.60;;;;;;;14.57;74.25;101426.44;6305478;22;20005;-59
2022/09/18 10:52:33;;;;;;;8.88;2.95;;;;;;;14.57;74.13;101412.47;6306967;22;20363;-59
2022/09/18 10:55:05;;;;;;;11.52;5.78;;;;;;;14.64;73.67;101419.50;6307281;22;20007;-58
2022/09/18 10:57:36;;;;;;;10.63;4.63;;;;;;;14.67;74.26;101410.63;6305228;22;20015;-58
2022/09/18 11:00:25;;;;;;;5.53;2.85;;;;;;;14.65;74.12;101404.44;6304584;22;20003;-59
2022/09/18 11:03:00;;;;;;;7.80;3.42;;;;;;;14.73;74.45;101411.47;6284379;22;20003;-59
2022/09/18 11:05:30;;;;;;;5.15;2.88;;;;;;;14.73;75.54;101400.31;6305518;22;20077;-59
2022/09/18 11:08:00;;;;;;;7.53;2.95;;;;;;;14.68;75.29;101403.06;6306305;22;20003;-59
2022/09/18 11:10:28;;;;;;;7.75;2.10;;;;;;;14.66;75.41;101416.47;6303465;22;20049;-58
2022/09/18 11:13:00;;;;;;;7.25;2.13;;;;;;;14.60;75.70;101434.28;6303441;22;20026;-58
2022/09/18 11:15:31;;;;;;;8.20;1.90;;;;;;;14.56;75.44;101438.72;6305986;22;20408;-58
2022/09/18 11:18:00;;;;;;;3.73;1.27;;;;;;;14.50;74.50;101449.00;6304429;22;20007;-57
2022/09/18 11:20:27;;;;;;;6.10;1.48;;;;;;;14.44;73.70;101444.44;6305258;22;20257;-58
2022/09/18 11:22:53;;;;;;;4.45;1.00;;;;;;;14.31;73.01;101447.69;6305055;22;20070;-58
2022/09/18 11:25:25;;;;;;;7.80;1.75;;;;;;;14.23;74.22;101451.78;6305580;22;20431;-58
2022/09/18 11:27:54;;;;;;;9.07;1.42;;;;;;;14.25;74.79;101441.19;6306012;22;20301;-58
2022/09/18 11:30:32;;;;;;;2.05;1.13;;;;;;;14.25;74.71;101450.41;6305997;22;20010;-58
2022/09/18 11:33:12;;;;;;;3.97;1.63;;;;;;;14.24;75.25;101445.09;6303915;22;20402;-58
2022/09/18 11:35:44;;;;;;;2.92;1.27;;;;;;;14.24;75.47;101450.69;6305196;22;19999;-58
2022/09/18 11:38:14;;;;;;;5.57;1.35;;;;;;;14.11;76.15;101448.28;6304523;22;20323;-60